Time,TemperatureF,DewpointF,PressureIn,WindDirection,WindDirectionDegrees,WindSpeedMPH,WindSpeedGustMPH,Humidity,HourlyPrecipIn,Conditions,Clouds,dailyrainin,SoftwareType,DateUTC
2013-01-23 00:03:00,18.0,-99.9,-100.00,SE,140,3.0,-999.0,-999,0.00,,,0.00,,2013-01-23 06:03:00,
2013-01-23 00:13:00,18.0,-99.9,-100.00,SE,140,3.0,-999.0,-999,0.00,,,0.00,,2013-01-23 06:13:00,
2013-01-23 00:23:00,18.0,-99.9,-100.00,SE,140,3.0,-999.0,-999,0.00,,,0.00,,2013-01-23 06:23:00,
2013-01-23 00:33:00,17.0,-99.9,-100.00,East,100,3.0,-999.0,-999,0.00,,,0.00,,2013-01-23 06:33:00,
2013-01-23 00:43:00,17.0,-99.9,-100.00,East,100,3.0,-999.0,-999,0.00,,,0.00,,2013-01-23 06:43:00,
2013-01-23 00:53:00,17.0,-99.9,-100.00,East,100,3.0,-999.0,-999,0.00,,,0.00,,2013-01-23 06:53:00,
2013-01-23 01:02:00,17.0,-99.9,-100.00,East,91,3.0,-999.0,-999,0.00,,,0.00,,2013-01-23 07:02:00,
2013-01-23 01:13:00,17.0,-99.9,-100.00,East,91,3.0,-999.0,-999,0.00,,,0.00,,2013-01-23 07:13:00,
2013-01-23 01:23:00,17.0,-99.9,-100.00,East,91,3.0,-999.0,-999,0.00,,,0.00,,2013-01-23 07:23:00,
2013-01-23 01:33:00,17.0,-99.9,-100.00,East,85,3.0,-999.0,-999,0.00,,,0.00,,2013-01-23 07:33:00,
2013-01-23 01:43:00,17.0,-99.9,-100.00,East,85,3.0,-999.0,-999,0.00,,,0.00,,2013-01-23 07:43:00,
2013-01-23 01:53:00,17.0,-99.9,-100.00,East,85,3.0,-999.0,-999,0.00,,,0.00,,2013-01-23 07:53:00,
2013-01-23 02:02:00,16.0,-99.9,-100.00,ESE,117,4.0,-999.0,-999,0.00,,,0.00,,2013-01-23 08:02:00,
2013-01-23 02:13:00,16.0,-99.9,-100.00,ESE,117,4.0,-999.0,-999,0.00,,,0.00,,2013-01-23 08:13:00,
2013-01-23 02:23:00,16.0,-99.9,-100.00,ESE,117,4.0,-999.0,-999,0.00,,,0.00,,2013-01-23 08:23:00,
2013-01-23 02:33:00,17.0,-99.9,-100.00,SSE,154,4.0,-999.0,-999,0.00,,,0.00,,2013-01-23 08:33:00,
2013-01-23 02:43:00,17.0,-99.9,-100.00,SSE,154,4.0,-999.0,-999,0.00,,,0.00,,2013-01-23 08:43:00,
2013-01-23 02:53:00,17.0,-99.9,-100.00,SSE,154,4.0,-999.0,-999,0.00,,,0.00,,2013-01-23 08:53:00,
2013-01-23 03:03:00,15.0,-99.9,-100.00,SSW,198,3.0,-999.0,-999,0.00,,,0.00,,2013-01-23 09:03:00,
2013-01-23 03:13:00,15.0,-99.9,-100.00,SSW,198,3.0,-999.0,-999,0.00,,,0.00,,2013-01-23 09:13:00,
2013-01-23 03:23:00,15.0,-99.9,-100.00,SSW,198,3.0,-999.0,-999,0.00,,,0.00,,2013-01-23 09:23:00,
2013-01-23 03:33:00,15.0,-99.9,-100.00,South,169,4.0,-999.0,-999,0.00,,,0.00,,2013-01-23 09:33:00,
2013-01-23 03:44:00,15.0,-99.9,-100.00,South,169,4.0,-999.0,-999,0.00,,,0.00,,2013-01-23 09:44:00,
2013-01-23 03:53:00,15.0,-99.9,-100.00,South,169,4.0,-999.0,-999,0.00,,,0.00,,2013-01-23 09:53:00,
2013-01-23 04:03:00,15.0,-99.9,-100.00,SW,222,0.0,-999.0,-999,0.00,,,0.00,,2013-01-23 10:03:00,
2013-01-23 04:13:00,15.0,-99.9,-100.00,SW,222,0.0,-999.0,-999,0.00,,,0.00,,2013-01-23 10:13:00,
2013-01-23 04:23:00,15.0,-99.9,-100.00,SW,222,0.0,-999.0,-999,0.00,,,0.00,,2013-01-23 10:23:00,
2013-01-23 04:30:00,15.0,-99.9,-100.00,ESE,105,4.0,-999.0,-999,0.00,,,0.00,,2013-01-23 10:30:00,
2013-01-23 04:33:00,14.0,-99.9,-100.00,South,177,0.0,-999.0,-999,0.00,,,0.00,,2013-01-23 10:33:00,
2013-01-23 04:43:00,14.0,-99.9,-100.00,South,177,0.0,-999.0,-999,0.00,,,0.00,,2013-01-23 10:43:00,
2013-01-23 04:53:00,14.0,-99.9,-100.00,South,177,0.0,-999.0,-999,0.00,,,0.00,,2013-01-23 10:53:00,
2013-01-23 05:03:00,15.0,-99.9,-100.00,ESE,105,4.0,-999.0,-999,0.00,,,0.00,,2013-01-23 11:03:00,
2013-01-23 05:12:00,15.0,-99.9,-100.00,ESE,105,4.0,-999.0,-999,0.00,,,0.00,,2013-01-23 11:12:00,
2013-01-23 05:23:00,15.0,-99.9,-100.00,ESE,105,4.0,-999.0,-999,0.00,,,0.00,,2013-01-23 11:23:00,
2013-01-23 06:04:00,15.0,-99.9,-100.00,ESE,123,3.0,-999.0,-999,-99.99,,,-99.99,,2013-01-23 12:04:00,
2013-01-23 06:13:00,15.0,-99.9,-100.00,ESE,123,3.0,-999.0,-999,-99.99,,,-99.99,,2013-01-23 12:13:00,
2013-01-23 06:23:00,15.0,-99.9,-100.00,ESE,123,3.0,-999.0,-999,-99.99,,,-99.99,,2013-01-23 12:23:00,
2013-01-23 06:33:00,15.0,-99.9,-100.00,SE,144,6.0,-999.0,-999,0.00,,,-99.99,,2013-01-23 12:33:00,
2013-01-23 06:43:00,15.0,-99.9,-100.00,SE,144,6.0,-999.0,-999,0.00,,,-99.99,,2013-01-23 12:43:00,
2013-01-23 06:53:00,15.0,-99.9,-100.00,SE,144,6.0,-999.0,-999,0.00,,,-99.99,,2013-01-23 12:53:00,
2013-01-23 07:04:00,13.0,-99.9,-100.00,SSW,209,2.0,-999.0,-999,0.00,,,-99.99,,2013-01-23 13:04:00,
2013-01-23 07:13:00,13.0,-99.9,-100.00,SSW,209,2.0,-999.0,-999,0.00,,,-99.99,,2013-01-23 13:13:00,
2013-01-23 07:23:00,13.0,-99.9,-100.00,SSW,209,2.0,-999.0,-999,0.00,,,-99.99,,2013-01-23 13:23:00,
2013-01-23 07:34:00,13.0,-99.9,-100.00,SSW,193,2.0,-999.0,-999,0.00,,,-99.99,,2013-01-23 13:34:00,
2013-01-23 07:43:00,13.0,-99.9,-100.00,SSW,193,2.0,-999.0,-999,0.00,,,-99.99,,2013-01-23 13:43:00,
2013-01-23 07:53:00,13.0,-99.9,-100.00,SSW,193,2.0,-999.0,-999,0.00,,,-99.99,,2013-01-23 13:53:00,
2013-01-23 08:03:00,14.0,-99.9,-100.00,SSW,202,1.0,-999.0,-999,0.00,,,-99.99,,2013-01-23 14:03:00,
2013-01-23 08:12:00,14.0,-99.9,-100.00,SSW,202,1.0,-999.0,-999,0.00,,,-99.99,,2013-01-23 14:12:00,
2013-01-23 08:24:00,14.0,-99.9,-100.00,SSW,202,1.0,-999.0,-999,0.00,,,-99.99,,2013-01-23 14:24:00,
2013-01-23 08:30:00,17.0,-99.9,-100.00,SSE,165,6.0,-999.0,-999,0.00,,,-99.99,,2013-01-23 14:30:00,
2013-01-23 08:33:00,16.0,-99.9,-100.00,South,181,4.0,-999.0,-999,0.00,,,-99.99,,2013-01-23 14:33:00,
2013-01-23 08:43:00,16.0,-99.9,-100.00,South,181,4.0,-999.0,-999,0.00,,,-99.99,,2013-01-23 14:43:00,
2013-01-23 08:53:00,16.0,-99.9,-100.00,South,181,4.0,-999.0,-999,0.00,,,-99.99,,2013-01-23 14:53:00,
2013-01-23 09:03:00,17.0,-99.9,-100.00,SSE,165,6.0,-999.0,-999,0.00,,,-99.99,,2013-01-23 15:03:00,
2013-01-23 09:13:00,17.0,-99.9,-100.00,SSE,165,6.0,-999.0,-999,0.00,,,-99.99,,2013-01-23 15:13:00,
2013-01-23 09:23:00,17.0,-99.9,-100.00,SSE,165,6.0,-999.0,-999,0.00,,,-99.99,,2013-01-23 15:23:00,
2013-01-23 10:03:00,19.0,-99.9,-100.00,SSE,163,8.0,-999.0,-999,0.00,,,-99.99,,2013-01-23 16:03:00,
2013-01-23 10:12:00,19.0,-99.9,-100.00,SSE,163,8.0,-999.0,-999,0.00,,,-99.99,,2013-01-23 16:12:00,
2013-01-23 10:23:00,19.0,-99.9,-100.00,SSE,163,8.0,-999.0,-999,0.00,,,-99.99,,2013-01-23 16:23:00,
2013-01-23 10:33:00,22.0,-99.9,-100.00,SSE,152,6.0,-999.0,-999,0.00,,,-99.99,,2013-01-23 16:33:00,
2013-01-23 10:43:00,22.0,-99.9,-100.00,SSE,152,6.0,-999.0,-999,0.00,,,-99.99,,2013-01-23 16:43:00,
2013-01-23 10:53:00,22.0,-99.9,-100.00,SSE,152,6.0,-999.0,-999,0.00,,,-99.99,,2013-01-23 16:53:00,
2013-01-23 11:04:00,24.0,-99.9,-100.00,SSW,195,6.0,-999.0,-999,0.00,,,-99.99,,2013-01-23 17:04:00,
2013-01-23 11:13:00,24.0,-99.9,-100.00,SSW,195,6.0,-999.0,-999,0.00,,,-99.99,,2013-01-23 17:13:00,
2013-01-23 11:23:00,24.0,-99.9,-100.00,SSW,195,6.0,-999.0,-999,0.00,,,-99.99,,2013-01-23 17:23:00,
2013-01-23 11:34:00,27.0,-99.9,-100.00,SSW,203,3.0,-999.0,-999,0.00,,,-99.99,,2013-01-23 17:34:00,
2013-01-23 11:43:00,27.0,-99.9,-100.00,SSW,203,3.0,-999.0,-999,0.00,,,-99.99,,2013-01-23 17:43:00,
2013-01-23 11:53:00,27.0,-99.9,-100.00,SSW,203,3.0,-999.0,-999,0.00,,,-99.99,,2013-01-23 17:53:00,
2013-01-23 12:00:00,32.0,-99.9,-100.00,SW,228,3.0,-999.0,-999,0.00,,,-99.99,,2013-01-23 18:00:00,
2013-01-23 12:04:00,29.0,-99.9,-100.00,SSW,200,4.0,-999.0,-999,0.00,,,-99.99,,2013-01-23 18:04:00,
2013-01-23 12:13:00,29.0,-99.9,-100.00,SSW,200,4.0,-999.0,-999,0.00,,,-99.99,,2013-01-23 18:13:00,
2013-01-23 12:24:00,29.0,-99.9,-100.00,SSW,200,4.0,-999.0,-999,0.00,,,-99.99,,2013-01-23 18:24:00,
2013-01-23 12:33:00,32.0,-99.9,-100.00,SW,228,3.0,-999.0,-999,0.00,,,-99.99,,2013-01-23 18:33:00,
2013-01-23 12:44:00,32.0,-99.9,-100.00,SW,228,3.0,-999.0,-999,0.00,,,-99.99,,2013-01-23 18:44:00,
2013-01-23 12:53:00,32.0,-99.9,-100.00,SW,228,3.0,-999.0,-999,0.00,,,-99.99,,2013-01-23 18:53:00,
2013-01-23 13:33:00,35.0,-99.9,-100.00,SW,234,6.0,-999.0,-999,0.00,,,-99.99,,2013-01-23 19:33:00,
2013-01-23 13:43:00,35.0,-99.9,-100.00,SW,234,6.0,-999.0,-999,0.00,,,-99.99,,2013-01-23 19:43:00,
2013-01-23 13:53:00,35.0,-99.9,-100.00,SW,234,6.0,-999.0,-999,0.00,,,-99.99,,2013-01-23 19:53:00,
2013-01-23 14:03:00,37.0,-99.9,-100.00,West,262,7.0,-999.0,-999,0.00,,,-99.99,,2013-01-23 20:03:00,
2013-01-23 14:13:00,37.0,-99.9,-100.00,West,262,7.0,-999.0,-999,0.00,,,-99.99,,2013-01-23 20:13:00,
2013-01-23 14:23:00,37.0,-99.9,-100.00,West,262,7.0,-999.0,-999,0.00,,,-99.99,,2013-01-23 20:23:00,
2013-01-23 14:33:00,38.0,-99.9,-100.00,WSW,246,7.0,-999.0,-999,0.00,,,-99.99,,2013-01-23 20:33:00,
2013-01-23 14:43:00,38.0,-99.9,-100.00,WSW,246,7.0,-999.0,-999,0.00,,,-99.99,,2013-01-23 20:43:00,
2013-01-23 14:54:00,38.0,-99.9,-100.00,WSW,246,7.0,-999.0,-999,0.00,,,-99.99,,2013-01-23 20:54:00,
2013-01-23 15:03:00,40.0,-99.9,-100.00,West,266,4.0,-999.0,-999,0.00,,,-99.99,,2013-01-23 21:03:00,
2013-01-23 15:13:00,40.0,-99.9,-100.00,West,266,4.0,-999.0,-999,0.00,,,-99.99,,2013-01-23 21:13:00,
2013-01-23 15:23:00,40.0,-99.9,-100.00,West,266,4.0,-999.0,-999,0.00,,,-99.99,,2013-01-23 21:23:00,
2013-01-23 15:34:00,39.0,-99.9,-100.00,West,281,6.0,-999.0,-999,0.00,,,-99.99,,2013-01-23 21:34:00,
2013-01-23 15:43:00,39.0,-99.9,-100.00,West,281,6.0,-999.0,-999,0.00,,,-99.99,,2013-01-23 21:43:00,
2013-01-23 15:53:00,39.0,-99.9,-100.00,West,281,6.0,-999.0,-999,0.00,,,-99.99,,2013-01-23 21:53:00,
2013-01-23 16:03:00,41.0,-99.9,-100.00,NW,305,7.0,-999.0,-999,0.00,,,-99.99,,2013-01-23 22:03:00,
2013-01-23 16:13:00,41.0,-99.9,-100.00,NW,305,7.0,-999.0,-999,0.00,,,-99.99,,2013-01-23 22:13:00,
2013-01-23 16:23:00,41.0,-99.9,-100.00,NW,305,7.0,-999.0,-999,0.00,,,-99.99,,2013-01-23 22:23:00,
2013-01-23 16:33:00,40.0,-99.9,-100.00,NW,305,8.0,-999.0,-999,0.00,,,-99.99,,2013-01-23 22:33:00,
2013-01-23 16:43:00,40.0,-99.9,-100.00,NW,305,8.0,-999.0,-999,0.00,,,-99.99,,2013-01-23 22:43:00,
2013-01-23 16:53:00,40.0,-99.9,-100.00,NW,305,8.0,-999.0,-999,0.00,,,-99.99,,2013-01-23 22:53:00,
2013-01-23 17:03:00,37.0,-99.9,-100.00,NW,307,8.0,-999.0,-999,0.00,,,-99.99,,2013-01-23 23:03:00,
2013-01-23 17:13:00,37.0,-99.9,-100.00,NW,307,8.0,-999.0,-999,0.00,,,-99.99,,2013-01-23 23:13:00,
2013-01-23 17:23:00,37.0,-99.9,-100.00,NW,307,8.0,-999.0,-999,0.00,,,-99.99,,2013-01-23 23:23:00,
2013-01-23 17:33:00,35.0,-99.9,-100.00,WNW,296,6.0,-999.0,-999,0.00,,,-99.99,,2013-01-23 23:33:00,
2013-01-23 17:43:00,35.0,-99.9,-100.00,WNW,296,6.0,-999.0,-999,0.00,,,-99.99,,2013-01-23 23:43:00,
2013-01-23 17:53:00,35.0,-99.9,-100.00,WNW,296,6.0,-999.0,-999,0.00,,,-99.99,,2013-01-23 23:53:00,
2013-01-23 18:03:00,34.0,-99.9,-100.00,WNW,303,8.0,-999.0,-999,0.00,,,-99.99,,2013-01-24 00:03:00,
2013-01-23 18:12:00,34.0,-99.9,-100.00,WNW,303,8.0,-999.0,-999,0.00,,,-99.99,,2013-01-24 00:12:00,
2013-01-23 18:23:00,34.0,-99.9,-100.00,WNW,303,8.0,-999.0,-999,0.00,,,-99.99,,2013-01-24 00:23:00,
2013-01-23 18:33:00,32.0,-99.9,-100.00,NW,305,6.0,-999.0,-999,0.00,,,-99.99,,2013-01-24 00:33:00,
2013-01-23 18:43:00,32.0,-99.9,-100.00,NW,305,6.0,-999.0,-999,0.00,,,-99.99,,2013-01-24 00:43:00,
2013-01-23 18:53:00,32.0,-99.9,-100.00,NW,305,6.0,-999.0,-999,0.00,,,-99.99,,2013-01-24 00:53:00,
2013-01-23 19:03:00,31.0,-99.9,-100.00,NW,316,10.0,-999.0,-999,0.00,,,-99.99,,2013-01-24 01:03:00,
2013-01-23 19:13:00,31.0,-99.9,-100.00,NW,316,10.0,-999.0,-999,0.00,,,-99.99,,2013-01-24 01:13:00,
2013-01-23 19:23:00,31.0,-99.9,-100.00,NW,316,10.0,-999.0,-999,0.00,,,-99.99,,2013-01-24 01:23:00,
2013-01-23 19:30:00,29.0,-99.9,-100.00,NW,306,7.0,-999.0,-999,0.00,,,-99.99,,2013-01-24 01:30:00,
2013-01-23 19:33:00,30.0,-99.9,-100.00,NW,307,6.0,-999.0,-999,0.00,,,-99.99,,2013-01-24 01:33:00,
2013-01-23 19:43:00,30.0,-99.9,-100.00,NW,307,6.0,-999.0,-999,0.00,,,-99.99,,2013-01-24 01:43:00,
2013-01-23 19:53:00,30.0,-99.9,-100.00,NW,307,6.0,-999.0,-999,0.00,,,-99.99,,2013-01-24 01:53:00,
2013-01-23 20:00:00,28.0,-99.9,-100.00,NW,309,12.0,-999.0,-999,0.00,,,-99.99,,2013-01-24 02:00:00,
2013-01-23 20:03:00,29.0,-99.9,-100.00,NW,306,7.0,-999.0,-999,0.00,,,-99.99,,2013-01-24 02:03:00,
2013-01-23 20:12:00,29.0,-99.9,-100.00,NW,306,7.0,-999.0,-999,0.00,,,-99.99,,2013-01-24 02:12:00,
2013-01-23 20:23:00,29.0,-99.9,-100.00,NW,306,7.0,-999.0,-999,0.00,,,-99.99,,2013-01-24 02:23:00,
2013-01-23 21:00:00,26.0,-99.9,-100.00,NW,314,14.0,-999.0,-999,0.00,,,-99.99,,2013-01-24 03:00:00,
2013-01-23 21:33:00,26.0,-99.9,-100.00,NW,314,14.0,-999.0,-999,0.00,,,-99.99,,2013-01-24 03:33:00,
2013-01-23 21:43:00,26.0,-99.9,-100.00,NW,314,14.0,-999.0,-999,0.00,,,-99.99,,2013-01-24 03:43:00,
2013-01-23 21:53:00,26.0,-99.9,-100.00,NW,314,14.0,-999.0,-999,0.00,,,-99.99,,2013-01-24 03:53:00,
2013-01-23 23:03:00,21.0,-99.9,-100.00,NW,313,12.0,-999.0,-999,0.00,,,-99.99,,2013-01-24 05:03:00,
2013-01-23 23:12:00,21.0,-99.9,-100.00,NW,313,12.0,-999.0,-999,0.00,,,-99.99,,2013-01-24 05:12:00,
2013-01-23 23:23:00,21.0,-99.9,-100.00,NW,313,12.0,-999.0,-999,0.00,,,-99.99,,2013-01-24 05:23:00,
2013-01-23 23:33:00,19.0,-99.9,-100.00,NW,314,12.0,-999.0,-999,0.00,,,-99.99,,2013-01-24 05:33:00,
2013-01-23 23:43:00,19.0,-99.9,-100.00,NW,314,12.0,-999.0,-999,0.00,,,-99.99,,2013-01-24 05:43:00,
2013-01-23 23:53:00,19.0,-99.9,-100.00,NW,314,12.0,-999.0,-999,0.00,,,-99.99,,2013-01-24 05:53:00,